Time;durP1;ratioP1;P1;durP2;ratioP2;P2;SDS_P1;SDS_P2;PMS_P1;PMS_P2;Temp;Humidity;BMP_temperature;BMP_pressure;BME280_temperature;BME280_humidity;BME280_pressure;Samples;Min_cycle;Max_cycle;Signal;HPM_P1;HPM_P2
2024/01/11 00:01:21;;;;;;;15.43;10.40;;;;;;;;;;5028465;28;20432;-51
2024/01/11 00:03:47;;;;;;;18.00;11.90;;;;;;;;;;5017551;28;20426;-51
2024/01/11 00:06:13;;;;;;;14.63;9.80;;;;;;;;;;5019383;28;20584;-53
2024/01/11 00:08:39;;;;;;;17.27;11.00;;;;;;;;;;5027543;28;20467;-51
2024/01/11 00:11:05;;;;;;;18.53;12.20;;;;;;;;;;5019792;28;20285;-52
2024/01/11 00:13:32;;;;;;;15.20;10.87;;;;;;;;;;5019308;28;20491;-50
2024/01/11 00:15:58;;;;;;;18.23;11.53;;;;;;;;;;5028114;28;20418;-50
2024/01/11 00:18:24;;;;;;;16.17;10.77;;;;;;;;;;5029338;28;20813;-50
2024/01/11 00:20:51;;;;;;;20.03;11.83;;;;;;;;;;5020844;28;20170;-50
2024/01/11 00:23:17;;;;;;;19.87;12.20;;;;;;;;;;5023940;28;20809;-50
2024/01/11 00:25:43;;;;;;;16.80;10.60;;;;;;;;;;5021677;28;20421;-50
2024/01/11 00:28:09;;;;;;;17.70;12.50;;;;;;;;;;5031779;28;20221;-50
2024/01/11 00:30:35;;;;;;;21.17;11.67;;;;;;;;;;5029182;28;20205;-50
2024/01/11 00:33:02;;;;;;;18.77;12.70;;;;;;;;;;5020271;28;20257;-51
2024/01/11 00:35:28;;;;;;;14.10;10.27;;;;;;;;;;5031889;28;20303;-54
2024/01/11 00:37:54;;;;;;;17.67;11.93;;;;;;;;;;5015065;28;20448;-54
2024/01/11 00:40:20;;;;;;;17.67;11.90;;;;;;;;;;5020410;28;20194;-53
2024/01/11 00:42:46;;;;;;;18.33;12.13;;;;;;;;;;5021300;28;20206;-54
2024/01/11 00:45:12;;;;;;;16.93;11.23;;;;;;;;;;5013472;28;20460;-53
2024/01/11 00:47:38;;;;;;;16.97;11.37;;;;;;;;;;5021204;28;20179;-54
2024/01/11 00:50:04;;;;;;;19.10;11.90;;;;;;;;;;5028118;28;20764;-54
2024/01/11 00:52:30;;;;;;;16.70;11.83;;;;;;;;;;5017418;28;20413;-53
2024/01/11 00:54:56;;;;;;;17.47;11.90;;;;;;;;;;5013957;28;20523;-54
2024/01/11 00:57:22;;;;;;;15.90;11.13;;;;;;;;;;5026890;28;20197;-54
2024/01/11 00:59:48;;;;;;;17.77;12.67;;;;;;;;;;5018132;28;20437;-53
2024/01/11 01:02:14;;;;;;;18.00;12.83;;;;;;;;;;5014394;28;20418;-53
2024/01/11 01:04:40;;;;;;;16.17;11.23;;;;;;;;;;5014898;28;20421;-53
2024/01/11 01:07:07;;;;;;;16.43;12.47;;;;;;;;;;5027252;28;20181;-53
2024/01/11 01:09:33;;;;;;;18.63;11.83;;;;;;;;;;5016781;28;20500;-54
2024/01/11 01:11:59;;;;;;;16.70;11.07;;;;;;;;;;5019602;28;20390;-54
2024/01/11 01:14:25;;;;;;;16.63;11.60;;;;;;;;;;5021259;28;20473;-54
2024/01/11 01:16:51;;;;;;;17.60;12.10;;;;;;;;;;5024274;28;20437;-54
2024/01/11 01:19:17;;;;;;;21.17;12.37;;;;;;;;;;5019303;28;20664;-54
2024/01/11 01:21:43;;;;;;;19.40;12.33;;;;;;;;;;5018628;28;20413;-53
2024/01/11 01:24:09;;;;;;;20.73;12.13;;;;;;;;;;5016526;28;20396;-53
2024/01/11 01:26:35;;;;;;;19.03;12.47;;;;;;;;;;5031005;28;20174;-53
2024/01/11 01:29:01;;;;;;;19.87;12.13;;;;;;;;;;5022222;28;20406;-53
2024/01/11 01:31:28;;;;;;;21.47;12.20;;;;;;;;;;5020272;28;20472;-53
2024/01/11 01:33:54;;;;;;;17.90;12.07;;;;;;;;;;5012282;28;21022;-53
2024/01/11 01:36:20;;;;;;;18.30;12.47;;;;;;;;;;5013691;28;20453;-53
2024/01/11 01:38:46;;;;;;;16.90;11.53;;;;;;;;;;5017767;28;20232;-53
2024/01/11 01:41:12;;;;;;;16.87;12.07;;;;;;;;;;5020022;28;20418;-53
2024/01/11 01:43:38;;;;;;;19.73;13.23;;;;;;;;;;5015444;28;20562;-53
2024/01/11 01:46:06;;;;;;;17.33;12.13;;;;;;;;;;5016470;28;20460;-53
2024/01/11 01:48:32;;;;;;;18.20;12.67;;;;;;;;;;5015170;28;20425;-53
2024/01/11 01:50:59;;;;;;;17.53;12.07;;;;;;;;;;5015072;28;20433;-53
2024/01/11 01:53:28;;;;;;;18.30;11.40;;;;;;;;;;5011663;28;20936;-53
2024/01/11 01:55:54;;;;;;;20.17;12.53;;;;;;;;;;5019394;28;20412;-53
2024/01/11 01:58:20;;;;;;;18.87;11.60;;;;;;;;;;5013530;28;20445;-53
2024/01/11 02:00:48;;;;;;;18.70;12.67;;;;;;;;;;5015385;28;20410;-53
2024/01/11 02:03:15;;;;;;;20.17;13.47;;;;;;;;;;5026919;28;20421;-54
2024/01/11 02:05:41;;;;;;;18.93;11.97;;;;;;;;;;5024602;28;20420;-53
2024/01/11 02:08:09;;;;;;;21.20;13.97;;;;;;;;;;5017035;28;20432;-53
2024/01/11 02:10:35;;;;;;;20.23;12.90;;;;;;;;;;5019934;28;20491;-53
2024/01/11 02:13:02;;;;;;;17.20;11.97;;;;;;;;;;5012365;28;20417;-53
2024/01/11 02:15:28;;;;;;;17.93;12.30;;;;;;;;;;5022909;28;21178;-53
2024/01/11 02:17:54;;;;;;;18.00;12.37;;;;;;;;;;5025834;28;20503;-53
2024/01/11 02:20:20;;;;;;;18.47;12.20;;;;;;;;;;5017355;28;20170;-53
2024/01/11 02:22:48;;;;;;;19.50;12.20;;;;;;;;;;5014857;28;20908;-53
2024/01/11 02:25:14;;;;;;;18.47;12.63;;;;;;;;;;5019951;28;20430;-53
2024/01/11 02:27:49;;;;;;;18.07;11.63;;;;;;;;;;5024358;28;20476;-53
2024/01/11 02:30:16;;;;;;;18.33;12.47;;;;;;;;;;5026059;28;20432;-53
2024/01/11 02:32:46;;;;;;;17.27;11.83;;;;;;;;;;5017187;28;20482;-57
2024/01/11 02:35:16;;;;;;;17.33;12.00;;;;;;;;;;5022005;28;20950;-53
2024/01/11 02:37:42;;;;;;;19.33;12.80;;;;;;;;;;5018443;28;20405;-53
2024/01/11 02:40:08;;;;;;;20.90;12.93;;;;;;;;;;5015353;28;20991;-53
2024/01/11 02:42:38;;;;;;;19.07;13.10;;;;;;;;;;5020573;28;20966;-53
2024/01/11 02:45:04;;;;;;;21.80;12.40;;;;;;;;;;5019033;28;20448;-53
2024/01/11 02:47:30;;;;;;;20.80;13.37;;;;;;;;;;5016864;28;20425;-53
2024/01/11 02:49:56;;;;;;;17.13;11.70;;;;;;;;;;5016200;28;20435;-53
2024/01/11 02:52:25;;;;;;;18.60;12.33;;;;;;;;;;5022266;28;20445;-53
2024/01/11 02:54:51;;;;;;;19.00;12.53;;;;;;;;;;5015194;28;20501;-55
2024/01/11 02:57:17;;;;;;;19.23;12.37;;;;;;;;;;5013008;28;20851;-56
2024/01/11 02:59:44;;;;;;;18.23;12.73;;;;;;;;;;5010958;28;20962;-56
2024/01/11 03:02:10;;;;;;;19.87;12.33;;;;;;;;;;5015925;28;20439;-55
2024/01/11 03:04:36;;;;;;;19.13;13.00;;;;;;;;;;5016935;28;20494;-55
2024/01/11 03:07:02;;;;;;;17.70;13.00;;;;;;;;;;5022136;28;20432;-56
2024/01/11 03:09:28;;;;;;;17.90;12.67;;;;;;;;;;5020023;28;20441;-55
2024/01/11 03:11:54;;;;;;;18.60;12.73;;;;;;;;;;5020472;28;20424;-56
2024/01/11 03:14:20;;;;;;;20.20;12.70;;;;;;;;;;5017858;28;20964;-55
2024/01/11 03:16:46;;;;;;;19.53;12.20;;;;;;;;;;5022370;28;20970;-56
2024/01/11 03:19:12;;;;;;;18.67;13.23;;;;;;;;;;5022827;28;20437;-55
2024/01/11 03:21:43;;;;;;;21.43;13.77;;;;;;;;;;5023896;28;20997;-56
2024/01/11 03:24:09;;;;;;;19.83;12.63;;;;;;;;;;5024533;28;20430;-54
2024/01/11 03:26:35;;;;;;;18.33;12.57;;;;;;;;;;5016484;28;20425;-55
2024/01/11 03:29:01;;;;;;;19.17;13.67;;;;;;;;;;5024855;28;20452;-56
2024/01/11 03:31:27;;;;;;;23.67;13.57;;;;;;;;;;5014614;28;20466;-55
2024/01/11 03:33:53;;;;;;;19.10;12.93;;;;;;;;;;5023029;28;20460;-56
2024/01/11 03:36:23;;;;;;;18.80;12.33;;;;;;;;;;5014785;28;20472;-56
2024/01/11 03:38:49;;;;;;;16.43;11.80;;;;;;;;;;5010334;28;20425;-55
2024/01/11 03:41:15;;;;;;;20.80;13.40;;;;;;;;;;5019606;28;20774;-55
2024/01/11 03:43:41;;;;;;;19.67;13.73;;;;;;;;;;5015781;28;20929;-56
2024/01/11 03:46:07;;;;;;;19.97;13.80;;;;;;;;;;5016239;28;20416;-55
2024/01/11 03:48:35;;;;;;;19.47;12.93;;;;;;;;;;5014557;28;20416;-53
2024/01/11 03:51:01;;;;;;;19.83;13.77;;;;;;;;;;5015293;28;20433;-55
2024/01/11 03:53:27;;;;;;;19.43;12.87;;;;;;;;;;5017594;28;20480;-56
2024/01/11 03:55:54;;;;;;;19.10;13.43;;;;;;;;;;5013292;28;20493;-56
2024/01/11 03:58:20;;;;;;;21.93;14.73;;;;;;;;;;5017872;28;20896;-55
2024/01/11 04:00:46;;;;;;;19.70;13.57;;;;;;;;;;5015286;28;20452;-56
2024/01/11 04:03:12;;;;;;;21.13;13.57;;;;;;;;;;5010620;28;20885;-55
2024/01/11 04:05:38;;;;;;;20.33;13.20;;;;;;;;;;5021032;28;20417;-53
2024/01/11 04:08:05;;;;;;;18.33;12.67;;;;;;;;;;5021075;28;20542;-53
2024/01/11 04:10:31;;;;;;;20.93;14.37;;;;;;;;;;5021578;28;21219;-53
2024/01/11 04:12:57;;;;;;;20.17;13.00;;;;;;;;;;5023257;28;20911;-53
2024/01/11 04:15:23;;;;;;;20.73;14.43;;;;;;;;;;5018070;28;20468;-53
2024/01/11 04:17:49;;;;;;;20.33;14.03;;;;;;;;;;5026507;28;20420;-53
2024/01/11 04:20:15;;;;;;;22.47;13.70;;;;;;;;;;5020679;28;20401;-53
2024/01/11 04:22:41;;;;;;;22.27;13.63;;;;;;;;;;5018177;28;20401;-53
2024/01/11 04:25:08;;;;;;;22.90;14.67;;;;;;;;;;5027116;28;20909;-53
2024/01/11 04:27:34;;;;;;;21.37;14.90;;;;;;;;;;5014405;28;20508;-53
2024/01/11 04:30:00;;;;;;;21.60;14.47;;;;;;;;;;5019142;28;20486;-53
2024/01/11 04:32:26;;;;;;;20.47;13.47;;;;;;;;;;5013682;28;20768;-55
2024/01/11 04:34:52;;;;;;;21.00;13.47;;;;;;;;;;5020918;28;20460;-53
2024/01/11 04:37:19;;;;;;;23.63;14.13;;;;;;;;;;5015519;28;20956;-53
2024/01/11 04:39:45;;;;;;;22.60;14.30;;;;;;;;;;5026519;28;20783;-53
2024/01/11 04:42:11;;;;;;;18.33;12.43;;;;;;;;;;5025547;28;20459;-53
2024/01/11 04:44:37;;;;;;;24.20;14.00;;;;;;;;;;5023878;28;20831;-54
2024/01/11 04:47:03;;;;;;;21.50;13.47;;;;;;;;;;5015735;28;20442;-53
2024/01/11 04:49:30;;;;;;;25.20;15.30;;;;;;;;;;5023034;28;20518;-53
2024/01/11 04:51:56;;;;;;;21.37;12.53;;;;;;;;;;5016275;28;20436;-53
2024/01/11 04:54:22;;;;;;;22.47;14.33;;;;;;;;;;5012970;28;20854;-53
2024/01/11 04:56:48;;;;;;;20.33;13.40;;;;;;;;;;5025071;28;20432;-53
2024/01/11 04:59:14;;;;;;;20.60;12.67;;;;;;;;;;5018026;28;20919;-53
2024/01/11 05:01:41;;;;;;;22.23;13.90;;;;;;;;;;5018130;28;20418;-53
2024/01/11 05:04:07;;;;;;;18.63;12.50;;;;;;;;;;5021527;28;20421;-53
2024/01/11 05:06:33;;;;;;;22.30;14.43;;;;;;;;;;5025029;28;20418;-53
2024/01/11 05:08:59;;;;;;;19.50;12.87;;;;;;;;;;5015611;28;20416;-53
2024/01/11 05:11:26;;;;;;;16.83;12.10;;;;;;;;;;5015968;28;20428;-53
2024/01/11 05:13:52;;;;;;;20.23;13.77;;;;;;;;;;5023730;28;20960;-53
2024/01/11 05:16:19;;;;;;;19.67;13.43;;;;;;;;;;5023699;28;20958;-53
2024/01/11 05:18:45;;;;;;;19.10;13.00;;;;;;;;;;5016892;28;20413;-53
2024/01/11 05:21:11;;;;;;;21.87;14.30;;;;;;;;;;5020573;28;20477;-53
2024/01/11 05:23:37;;;;;;;19.13;13.07;;;;;;;;;;5018628;28;20453;-53
2024/01/11 05:26:04;;;;;;;19.73;12.80;;;;;;;;;;5029694;28;20938;-53
2024/01/11 05:28:30;;;;;;;23.37;13.77;;;;;;;;;;5019470;28;20912;-53
2024/01/11 05:30:56;;;;;;;20.43;13.77;;;;;;;;;;5015690;28;20409;-53
2024/01/11 05:33:22;;;;;;;24.03;14.13;;;;;;;;;;5016901;28;20416;-53
2024/01/11 05:35:48;;;;;;;22.53;14.10;;;;;;;;;;5015159;28;20512;-53
2024/01/11 05:38:14;;;;;;;21.33;13.40;;;;;;;;;;5020228;28;20445;-53
2024/01/11 05:40:40;;;;;;;22.57;14.37;;;;;;;;;;5013933;28;20401;-53
2024/01/11 05:43:06;;;;;;;22.53;14.17;;;;;;;;;;5014623;28;20447;-53
2024/01/11 05:45:33;;;;;;;21.17;13.43;;;;;;;;;;5014502;28;20468;-53
2024/01/11 05:47:59;;;;;;;21.33;13.97;;;;;;;;;;5014451;28;20940;-53
2024/01/11 05:50:26;;;;;;;23.33;13.37;;;;;;;;;;5017691;28;20475;-53
2024/01/11 05:52:53;;;;;;;24.80;13.93;;;;;;;;;;5020762;28;20442;-53
2024/01/11 05:55:19;;;;;;;20.77;13.33;;;;;;;;;;5019578;28;20465;-53
2024/01/11 05:57:45;;;;;;;20.53;13.87;;;;;;;;;;5023005;28;20421;-53
2024/01/11 06:00:12;;;;;;;22.63;13.33;;;;;;;;;;5018810;28;20439;-53
2024/01/11 06:02:38;;;;;;;18.80;13.17;;;;;;;;;;5018695;28;20429;-53
2024/01/11 06:05:04;;;;;;;20.97;13.73;;;;;;;;;;5018119;28;20444;-53
2024/01/11 06:07:30;;;;;;;21.60;13.57;;;;;;;;;;5025741;28;20482;-53
2024/01/11 06:09:56;;;;;;;22.57;14.23;;;;;;;;;;5016904;28;20445;-53
2024/01/11 06:12:22;;;;;;;25.57;13.47;;;;;;;;;;5011222;28;20759;-53
2024/01/11 06:14:48;;;;;;;22.10;13.77;;;;;;;;;;5018539;28;20467;-53
2024/01/11 06:17:14;;;;;;;19.37;13.23;;;;;;;;;;5017188;28;20455;-53
2024/01/11 06:19:40;;;;;;;21.30;13.27;;;;;;;;;;5020497;28;20911;-53
2024/01/11 06:22:06;;;;;;;19.60;13.40;;;;;;;;;;5023954;28;20439;-52
2024/01/11 06:24:33;;;;;;;20.87;14.60;;;;;;;;;;5018275;28;20416;-53
2024/01/11 06:26:59;;;;;;;21.80;14.40;;;;;;;;;;5021301;28;20935;-54
2024/01/11 06:29:25;;;;;;;21.93;14.63;;;;;;;;;;5021092;28;20441;-53
2024/01/11 06:31:51;;;;;;;19.77;14.20;;;;;;;;;;5020665;28;20440;-52
2024/01/11 06:34:17;;;;;;;21.93;14.20;;;;;;;;;;5018927;28;20814;-53
2024/01/11 06:36:44;;;;;;;22.50;13.37;;;;;;;;;;5015997;28;20947;-53
2024/01/11 06:39:10;;;;;;;20.27;13.60;;;;;;;;;;5014682;28;20418;-53
2024/01/11 06:41:36;;;;;;;21.27;13.47;;;;;;;;;;5023660;28;20417;-53
2024/01/11 06:44:02;;;;;;;19.97;13.90;;;;;;;;;;5019698;28;20548;-53
2024/01/11 06:46:28;;;;;;;22.03;14.67;;;;;;;;;;5023334;28;20437;-53
2024/01/11 06:48:54;;;;;;;19.70;13.23;;;;;;;;;;5010779;28;20479;-53
2024/01/11 06:51:23;;;;;;;19.83;12.90;;;;;;;;;;5019379;28;20401;-53
2024/01/11 06:53:50;;;;;;;17.20;12.73;;;;;;;;;;5012863;28;20461;-53
2024/01/11 06:56:16;;;;;;;21.33;14.43;;;;;;;;;;5028122;28;20507;-53
2024/01/11 06:58:43;;;;;;;22.43;13.13;;;;;;;;;;5013123;28;20421;-53
2024/01/11 07:01:09;;;;;;;22.37;14.37;;;;;;;;;;5013311;28;20818;-53
2024/01/11 07:03:35;;;;;;;21.00;13.93;;;;;;;;;;5015589;28;20409;-53
2024/01/11 07:06:03;;;;;;;19.43;12.97;;;;;;;;;;5024559;28;20401;-53
2024/01/11 07:08:29;;;;;;;21.10;13.10;;;;;;;;;;5013275;28;20491;-53
2024/01/11 07:10:55;;;;;;;23.50;14.10;;;;;;;;;;5010888;28;20405;-53
2024/01/11 07:13:21;;;;;;;20.23;12.60;;;;;;;;;;5029159;28;20508;-53
2024/01/11 07:15:48;;;;;;;21.47;13.53;;;;;;;;;;5013899;28;20453;-53
2024/01/11 07:18:14;;;;;;;18.40;12.70;;;;;;;;;;5014985;28;20406;-53
2024/01/11 07:20:40;;;;;;;20.00;13.47;;;;;;;;;;5014175;28;20406;-53
2024/01/11 07:23:06;;;;;;;19.87;12.47;;;;;;;;;;5012643;28;20426;-53
2024/01/11 07:25:34;;;;;;;20.17;12.70;;;;;;;;;;5013827;28;20782;-53
2024/01/11 07:28:00;;;;;;;22.77;14.47;;;;;;;;;;5016388;28;20460;-53
2024/01/11 07:30:26;;;;;;;21.47;13.63;;;;;;;;;;5021078;28;20451;-53
2024/01/11 07:32:53;;;;;;;21.13;13.87;;;;;;;;;;5012660;28;20487;-53
2024/01/11 07:35:20;;;;;;;20.43;13.43;;;;;;;;;;5015802;28;20464;-52
2024/01/11 07:37:46;;;;;;;22.30;13.60;;;;;;;;;;5020806;28;20441;-55
2024/01/11 07:40:13;;;;;;;19.87;13.10;;;;;;;;;;5015617;28;20492;-55
2024/01/11 07:42:39;;;;;;;23.90;14.77;;;;;;;;;;5016636;28;20986;-55
2024/01/11 07:45:06;;;;;;;18.63;12.67;;;;;;;;;;5018810;28;20483;-54
2024/01/11 07:47:32;;;;;;;20.20;12.60;;;;;;;;;;5024423;28;20487;-56
2024/01/11 07:49:58;;;;;;;19.00;12.87;;;;;;;;;;5026013;28;20930;-55
2024/01/11 07:52:24;;;;;;;22.13;13.23;;;;;;;;;;5029276;28;20779;-55
2024/01/11 07:54:50;;;;;;;19.50;12.70;;;;;;;;;;5031472;28;20966;-55
2024/01/11 07:57:16;;;;;;;20.80;13.13;;;;;;;;;;5023152;28;20916;-56
2024/01/11 07:59:42;;;;;;;19.00;12.30;;;;;;;;;;5025628;28;20424;-56
2024/01/11 08:02:08;;;;;;;19.73;14.00;;;;;;;;;;5026335;28;20431;-54
2024/01/11 08:04:34;;;;;;;19.60;12.57;;;;;;;;;;5026744;28;20953;-55
2024/01/11 08:07:01;;;;;;;19.07;13.73;;;;;;;;;;5022022;28;20974;-56
2024/01/11 08:09:28;;;;;;;18.70;12.80;;;;;;;;;;5020039;28;20515;-54
2024/01/11 08:11:54;;;;;;;16.97;12.47;;;;;;;;;;5023269;28;20498;-55
2024/01/11 08:14:20;;;;;;;19.57;12.47;;;;;;;;;;5026944;28;20456;-55
2024/01/11 08:16:46;;;;;;;21.63;13.07;;;;;;;;;;5026947;28;20941;-55
2024/01/11 08:19:16;;;;;;;22.37;13.13;;;;;;;;;;5039119;28;20851;-55
2024/01/11 08:21:43;;;;;;;19.33;12.57;;;;;;;;;;5025612;28;20425;-56
2024/01/11 08:24:09;;;;;;;20.10;13.83;;;;;;;;;;5034761;28;20422;-54
2024/01/11 08:26:35;;;;;;;21.57;13.37;;;;;;;;;;5016409;28;20436;-55
2024/01/11 08:29:02;;;;;;;17.70;12.07;;;;;;;;;;5027379;28;20424;-55
2024/01/11 08:31:28;;;;;;;19.57;13.10;;;;;;;;;;5028818;28;20441;-55
2024/01/11 08:33:54;;;;;;;16.17;11.93;;;;;;;;;;5025993;28;20487;-55
2024/01/11 08:36:20;;;;;;;18.77;13.23;;;;;;;;;;5030927;28;20629;-56
2024/01/11 08:38:46;;;;;;;21.00;13.90;;;;;;;;;;5031970;28;20549;-56
2024/01/11 08:41:12;;;;;;;23.00;13.80;;;;;;;;;;5030917;28;20416;-55
2024/01/11 08:43:39;;;;;;;19.30;12.47;;;;;;;;;;5016748;28;20440;-55
2024/01/11 08:46:05;;;;;;;20.80;13.50;;;;;;;;;;5024694;28;20421;-55
2024/01/11 08:48:31;;;;;;;21.53;13.70;;;;;;;;;;5022664;28;20431;-53
2024/01/11 08:50:57;;;;;;;22.87;13.23;;;;;;;;;;5021602;28;20410;-53
2024/01/11 08:53:23;;;;;;;20.77;13.40;;;;;;;;;;5027581;28;20412;-53
2024/01/11 08:55:49;;;;;;;18.37;11.90;;;;;;;;;;5017158;28;20468;-53
2024/01/11 08:58:15;;;;;;;18.90;13.90;;;;;;;;;;5022986;28;20408;-53
2024/01/11 09:00:41;;;;;;;22.23;14.17;;;;;;;;;;5023707;28;20412;-53
2024/01/11 09:03:08;;;;;;;22.87;13.77;;;;;;;;;;5024776;28;20401;-53
2024/01/11 09:05:34;;;;;;;21.57;13.70;;;;;;;;;;5028044;28;20486;-53
2024/01/11 09:08:00;;;;;;;22.40;13.83;;;;;;;;;;5026375;28;20942;-53
2024/01/11 09:10:27;;;;;;;21.13;14.73;;;;;;;;;;5028335;28;20513;-53
2024/01/11 09:12:54;;;;;;;18.77;13.30;;;;;;;;;;5022999;28;20499;-54
2024/01/11 09:15:20;;;;;;;20.10;13.50;;;;;;;;;;5024265;28;21021;-54
2024/01/11 09:17:46;;;;;;;24.73;13.97;;;;;;;;;;5023111;28;20417;-54
2024/01/11 09:20:14;;;;;;;18.87;13.60;;;;;;;;;;5019214;28;20761;-54
2024/01/11 09:22:40;;;;;;;19.57;13.43;;;;;;;;;;5025043;28;20456;-54
2024/01/11 09:25:08;;;;;;;20.33;13.47;;;;;;;;;;5026963;28;20880;-54
2024/01/11 09:27:34;;;;;;;20.63;12.10;;;;;;;;;;5019152;28;20398;-54
2024/01/11 09:30:00;;;;;;;20.53;12.73;;;;;;;;;;5021199;28;20467;-54
2024/01/11 09:32:26;;;;;;;23.53;14.27;;;;;;;;;;5011867;28;20405;-54
2024/01/11 09:34:52;;;;;;;21.20;13.83;;;;;;;;;;5021165;28;20449;-54
2024/01/11 09:37:18;;;;;;;25.03;14.37;;;;;;;;;;5019242;28;20472;-54
2024/01/11 09:39:44;;;;;;;20.03;14.37;;;;;;;;;;5022585;28;20783;-54
2024/01/11 09:42:10;;;;;;;22.60;14.03;;;;;;;;;;5019538;28;20444;-54
2024/01/11 09:44:40;;;;;;;28.90;15.77;;;;;;;;;;5013411;28;20461;-54
2024/01/11 09:47:10;;;;;;;19.67;14.27;;;;;;;;;;5010480;28;20791;-54
2024/01/11 09:49:37;;;;;;;21.70;14.27;;;;;;;;;;5011133;28;20437;-54
2024/01/11 09:52:05;;;;;;;22.30;14.73;;;;;;;;;;5026678;28;20425;-54
2024/01/11 09:54:31;;;;;;;24.37;16.00;;;;;;;;;;5016115;28;20461;-54
2024/01/11 09:57:00;;;;;;;20.77;14.30;;;;;;;;;;5019470;28;21013;-54
2024/01/11 09:59:27;;;;;;;20.97;14.33;;;;;;;;;;5011895;28;20466;-52
2024/01/11 10:01:53;;;;;;;21.50;14.13;;;;;;;;;;5008515;28;20893;-51
2024/01/11 10:04:19;;;;;;;22.13;13.80;;;;;;;;;;5017695;28;20409;-50
2024/01/11 10:06:45;;;;;;;20.93;14.40;;;;;;;;;;5013275;28;20520;-52
2024/01/11 10:09:12;;;;;;;21.37;14.53;;;;;;;;;;5013288;28;20493;-52
2024/01/11 10:11:38;;;;;;;19.60;15.13;;;;;;;;;;5011831;28;20833;-51
2024/01/11 10:14:05;;;;;;;22.10;15.03;;;;;;;;;;5014313;28;20457;-51
2024/01/11 10:16:31;;;;;;;22.93;14.17;;;;;;;;;;5017095;28;20465;-52
2024/01/11 10:18:57;;;;;;;20.77;15.03;;;;;;;;;;5012213;28;20442;-51
2024/01/11 10:21:24;;;;;;;21.57;15.17;;;;;;;;;;5013642;28;20424;-50
2024/01/11 10:23:50;;;;;;;24.17;14.90;;;;;;;;;;5016602;28;20881;-51
2024/01/11 10:26:17;;;;;;;19.90;14.70;;;;;;;;;;5016800;28;20519;-52
2024/01/11 10:28:45;;;;;;;23.00;15.07;;;;;;;;;;5017060;28;20404;-51
2024/01/11 10:31:11;;;;;;;23.87;15.27;;;;;;;;;;5017811;28;20919;-51
2024/01/11 10:33:37;;;;;;;27.07;16.20;;;;;;;;;;5010957;28;20421;-51
2024/01/11 10:36:04;;;;;;;24.30;16.13;;;;;;;;;;5013929;28;20426;-51
2024/01/11 10:38:36;;;;;;;23.17;14.47;;;;;;;;;;5019718;28;20460;-52
2024/01/11 10:41:04;;;;;;;24.83;15.57;;;;;;;;;;5017548;28;20926;-52
2024/01/11 10:43:31;;;;;;;23.07;15.80;;;;;;;;;;5019625;28;20792;-51
2024/01/11 10:46:03;;;;;;;23.77;14.63;;;;;;;;;;5027107;28;20487;-51
2024/01/11 10:48:31;;;;;;;23.67;15.70;;;;;;;;;;5012557;28;20433;-52
2024/01/11 10:51:01;;;;;;;24.57;15.43;;;;;;;;;;5023732;28;20424;-53
2024/01/11 10:53:39;;;;;;;20.73;13.83;;;;;;;;;;5020134;28;20449;-51
2024/01/11 10:56:08;;;;;;;25.67;16.37;;;;;;;;;;5020294;28;21150;-51
2024/01/11 10:58:35;;;;;;;23.33;14.83;;;;;;;;;;5022606;28;20988;-52
2024/01/11 11:01:02;;;;;;;22.67;14.97;;;;;;;;;;5026186;28;20416;-53
2024/01/11 11:03:28;;;;;;;24.37;15.97;;;;;;;;;;5015088;28;20437;-51
2024/01/11 11:05:57;;;;;;;19.90;14.67;;;;;;;;;;5018856;28;20782;-51
2024/01/11 11:08:25;;;;;;;23.10;16.30;;;;;;;;;;5017256;28;20755;-55
2024/01/11 11:10:52;;;;;;;21.53;14.90;;;;;;;;;;5025219;28;20478;-55
2024/01/11 11:13:19;;;;;;;21.27;14.93;;;;;;;;;;5017914;28;20548;-55
2024/01/11 11:15:48;;;;;;;22.87;15.50;;;;;;;;;;5015433;28;20537;-55
2024/01/11 11:18:16;;;;;;;26.53;15.93;;;;;;;;;;5021990;28;20973;-54
2024/01/11 11:20:42;;;;;;;24.53;15.40;;;;;;;;;;5019876;28;20884;-54
2024/01/11 11:23:09;;;;;;;22.50;14.73;;;;;;;;;;5016518;28;20398;-55
2024/01/11 11:25:36;;;;;;;21.47;14.93;;;;;;;;;;5020445;28;20462;-55
2024/01/11 11:28:04;;;;;;;23.90;15.63;;;;;;;;;;5021045;28;20509;-55
2024/01/11 11:30:30;;;;;;;23.77;15.73;;;;;;;;;;5021177;28;20475;-55
2024/01/11 11:32:56;;;;;;;18.30;13.93;;;;;;;;;;5014891;28;21026;-55
2024/01/11 11:35:25;;;;;;;30.97;15.80;;;;;;;;;;5017371;28;20456;-55
2024/01/11 11:41:17;;;;;;;19.47;14.40;;;;;;;;;;5015993;28;20509;-55
2024/01/11 11:43:43;;;;;;;25.87;15.97;;;;;;;;;;5020223;28;20913;-55
2024/01/11 11:46:09;;;;;;;20.70;13.90;;;;;;;;;;5023355;28;20420;-55
2024/01/11 11:48:35;;;;;;;24.17;14.80;;;;;;;;;;5010963;28;20402;-54
2024/01/11 11:51:08;;;;;;;19.67;14.07;;;;;;;;;;5023932;28;20502;-55
2024/01/11 11:53:35;;;;;;;21.83;14.30;;;;;;;;;;5021207;28;20417;-55
2024/01/11 11:56:01;;;;;;;19.37;13.37;;;;;;;;;;5031535;28;20924;-55
2024/01/11 11:58:28;;;;;;;22.73;14.47;;;;;;;;;;5023082;28;20892;-54
2024/01/11 12:00:55;;;;;;;20.93;13.93;;;;;;;;;;5030498;28;20445;-54
2024/01/11 12:03:24;;;;;;;21.83;14.73;;;;;;;;;;5023923;28;20420;-55
2024/01/11 12:05:50;;;;;;;24.97;14.77;;;;;;;;;;5020829;28;20417;-55
2024/01/11 12:08:17;;;;;;;19.17;13.63;;;;;;;;;;5014008;28;20440;-55
2024/01/11 12:10:43;;;;;;;22.40;13.60;;;;;;;;;;5025303;28;20865;-55
2024/01/11 12:13:09;;;;;;;19.97;14.67;;;;;;;;;;5018563;28;20418;-55
2024/01/11 12:15:35;;;;;;;21.67;15.10;;;;;;;;;;5023372;28;20452;-55
2024/01/11 12:18:01;;;;;;;17.33;13.17;;;;;;;;;;5020326;28;20428;-53
2024/01/11 12:20:29;;;;;;;21.57;14.63;;;;;;;;;;5023359;28;20949;-55
2024/01/11 12:22:55;;;;;;;21.27;13.87;;;;;;;;;;5015684;28;20183;-55
2024/01/11 12:25:21;;;;;;;23.37;15.63;;;;;;;;;;5016621;28;20406;-55
2024/01/11 12:27:47;;;;;;;20.57;14.30;;;;;;;;;;5020929;28;20445;-55
2024/01/11 12:30:16;;;;;;;19.57;12.90;;;;;;;;;;5027679;28;20414;-54
2024/01/11 12:32:43;;;;;;;19.57;13.87;;;;;;;;;;5026094;28;20448;-55
2024/01/11 12:35:09;;;;;;;20.10;12.70;;;;;;;;;;5027523;28;20981;-55
2024/01/11 12:37:35;;;;;;;20.87;13.63;;;;;;;;;;5024686;28;20871;-55
2024/01/11 12:40:01;;;;;;;18.67;13.87;;;;;;;;;;5020538;28;20424;-55
2024/01/11 12:42:28;;;;;;;19.53;13.30;;;;;;;;;;5027998;28;20296;-55
2024/01/11 12:44:54;;;;;;;20.40;14.27;;;;;;;;;;5033445;28;20869;-56
2024/01/11 12:47:20;;;;;;;20.10;14.50;;;;;;;;;;5024369;28;20457;-56
2024/01/11 12:49:46;;;;;;;20.40;14.23;;;;;;;;;;5026835;28;20922;-55
2024/01/11 12:52:19;;;;;;;18.50;13.20;;;;;;;;;;5016703;28;21075;-55
2024/01/11 12:54:45;;;;;;;21.23;14.03;;;;;;;;;;5030161;28;20464;-55
2024/01/11 12:57:12;;;;;;;22.20;15.50;;;;;;;;;;5026454;28;20486;-55
2024/01/11 12:59:39;;;;;;;19.83;14.40;;;;;;;;;;5036344;28;20461;-55
2024/01/11 13:02:06;;;;;;;23.60;15.00;;;;;;;;;;5021828;28;20425;-54
2024/01/11 13:04:32;;;;;;;22.83;14.87;;;;;;;;;;5033237;28;20631;-55
2024/01/11 13:06:58;;;;;;;20.63;14.87;;;;;;;;;;5023022;28;20592;-55
2024/01/11 13:09:24;;;;;;;21.90;14.67;;;;;;;;;;5030110;28;20819;-55
2024/01/11 13:11:50;;;;;;;21.83;14.47;;;;;;;;;;5022002;28;20416;-55
2024/01/11 13:14:19;;;;;;;20.73;13.83;;;;;;;;;;5029684;28;20665;-55
2024/01/11 13:16:46;;;;;;;24.77;14.17;;;;;;;;;;5027820;28;20195;-55
2024/01/11 13:19:12;;;;;;;21.57;13.97;;;;;;;;;;5016274;28;20418;-55
2024/01/11 13:21:38;;;;;;;23.90;14.03;;;;;;;;;;5014469;28;20421;-54
2024/01/11 13:24:05;;;;;;;20.87;14.27;;;;;;;;;;5024072;28;20235;-54
2024/01/11 13:26:31;;;;;;;22.03;14.53;;;;;;;;;;5025129;28;20910;-55
2024/01/11 13:28:57;;;;;;;20.87;13.67;;;;;;;;;;5021971;28;20657;-54
2024/01/11 13:31:23;;;;;;;20.43;14.13;;;;;;;;;;5026011;28;20416;-53
2024/01/11 13:33:49;;;;;;;18.73;12.93;;;;;;;;;;5034419;28;20186;-53
2024/01/11 13:36:15;;;;;;;18.90;12.97;;;;;;;;;;5039508;28;20470;-53
2024/01/11 13:38:41;;;;;;;17.13;12.60;;;;;;;;;;5021637;28;20456;-53
2024/01/11 13:41:10;;;;;;;18.13;12.93;;;;;;;;;;5030917;28;20492;-53
2024/01/11 13:43:36;;;;;;;19.43;12.70;;;;;;;;;;5021725;28;20217;-54
2024/01/11 13:46:05;;;;;;;20.37;11.87;;;;;;;;;;5024727;28;20814;-54
2024/01/11 13:48:32;;;;;;;16.23;12.53;;;;;;;;;;5023467;28;20425;-54
2024/01/11 13:50:59;;;;;;;18.03;12.23;;;;;;;;;;5021918;28;20425;-54
2024/01/11 13:53:26;;;;;;;17.30;11.43;;;;;;;;;;5014652;28;20921;-54
2024/01/11 13:55:52;;;;;;;16.80;12.57;;;;;;;;;;5027862;28;20482;-54
2024/01/11 13:58:18;;;;;;;17.73;11.50;;;;;;;;;;5025459;28;20420;-54
2024/01/11 14:00:45;;;;;;;17.80;13.03;;;;;;;;;;5025987;28;20979;-54
2024/01/11 14:03:11;;;;;;;17.03;12.00;;;;;;;;;;5023008;28;20182;-54
2024/01/11 14:05:37;;;;;;;19.17;13.17;;;;;;;;;;5018075;28;20585;-54
2024/01/11 14:08:06;;;;;;;14.53;10.03;;;;;;;;;;5024154;28;20206;-54
2024/01/11 14:10:33;;;;;;;14.87;10.83;;;;;;;;;;5018943;28;20190;-54
2024/01/11 14:13:00;;;;;;;15.10;11.20;;;;;;;;;;5013405;28;20186;-54
2024/01/11 14:15:26;;;;;;;15.10;10.50;;;;;;;;;;5020774;28;20676;-54